Time;durP1;ratioP1;P1;durP2;ratioP2;P2;SDS_P1;SDS_P2;PMS_P1;PMS_P2;Temp;Humidity;BMP_temperature;BMP_pressure;BME280_temperature;BME280_humidity;BME280_pressure;Samples;Min_cycle;Max_cycle;Signal;HPM_P1;HPM_P2
2022/06/05 00:00:52;;;;;;;10.30;9.30;;;17.00;99.90;;;;;;5020597;28;20445;-91
2022/06/05 00:03:27;;;;;;;10.37;9.10;;;17.00;99.90;;;;;;5020348;28;20492;-92
2022/06/05 00:06:04;;;;;;;10.23;9.20;;;17.00;99.90;;;;;;5018166;28;20463;-91
2022/06/05 00:08:52;;;;;;;9.70;9.00;;;17.00;99.90;;;;;;5012229;28;20463;-92
2022/06/05 00:11:19;;;;;;;9.87;9.10;;;;;;;;;;5013489;28;20452;-90
2022/06/05 00:13:49;;;;;;;10.03;9.13;;;17.00;99.90;;;;;;5017063;28;20441;-92
2022/06/05 00:16:23;;;;;;;10.80;9.80;;;17.00;99.90;;;;;;5016945;28;20503;-92
2022/06/05 00:18:50;;;;;;;9.97;9.17;;;;;;;;;;5011714;28;20495;-89
2022/06/05 00:21:18;;;;;;;10.13;8.90;;;;;;;;;;5016252;28;20864;-92
2022/06/05 00:23:46;;;;;;;10.00;9.20;;;;;;;;;;5015964;28;20499;-92
2022/06/05 00:26:22;;;;;;;10.20;9.30;;;17.10;99.90;;;;;;5012619;28;20486;-91
2022/06/05 00:29:00;;;;;;;10.20;9.40;;;17.20;99.90;;;;;;5015904;28;20459;-90
2022/06/05 00:31:36;;;;;;;10.90;10.00;;;17.20;99.90;;;;;;5015511;28;20452;-93
2022/06/05 00:34:04;;;;;;;9.70;8.90;;;;;;;;;;5014303;28;20470;-92
2022/06/05 00:36:47;;;;;;;10.07;9.20;;;17.20;99.90;;;;;;5015805;28;20445;-91
2022/06/05 00:39:20;;;;;;;8.73;8.03;;;17.10;99.90;;;;;;5015373;28;20456;-90
2022/06/05 00:41:56;;;;;;;11.27;9.70;;;17.00;99.90;;;;;;5015116;28;20472;-91
2022/06/05 00:44:27;;;;;;;8.67;7.97;;;16.90;99.90;;;;;;5015154;28;20492;-90
2022/06/05 00:46:55;;;;;;;9.17;8.47;;;16.80;99.90;;;;;;5015352;28;20490;-90
2022/06/05 00:49:26;;;;;;;9.30;8.30;;;16.80;99.90;;;;;;5013880;28;20455;-91
2022/06/05 00:51:54;;;;;;;9.50;8.60;;;;;;;;;;5015041;28;20462;-91
2022/06/05 00:54:21;;;;;;;9.33;8.47;;;;;;;;;;5015133;28;20499;-92
2022/06/05 00:56:48;;;;;;;10.40;8.47;;;;;;;;;;5015160;28;20459;-92
2022/06/05 00:59:15;;;;;;;9.63;8.73;;;;;;;;;;5015199;28;20440;-91
2022/06/05 01:01:43;;;;;;;14.43;8.90;;;;;;;;;;5015025;28;20451;-91
2022/06/05 01:04:12;;;;;;;9.60;8.70;;;16.60;99.90;;;;;;5013756;28;20523;-90
2022/06/05 01:06:40;;;;;;;11.60;9.67;;;;;;;;;;5014951;28;20460;-91
2022/06/05 01:09:07;;;;;;;9.30;8.33;;;;;;;;;;5014826;28;20445;-89
2022/06/05 01:11:44;;;;;;;10.47;9.60;;;16.60;99.90;;;;;;5014964;28;20494;-91
2022/06/05 01:14:19;;;;;;;10.77;9.67;;;16.50;99.90;;;;;;5012601;28;20457;-90
2022/06/05 01:16:55;;;;;;;10.07;9.23;;;16.50;99.90;;;;;;5015799;28;20456;-91
2022/06/05 01:19:40;;;;;;;9.17;8.33;;;16.50;99.90;;;;;;5015196;28;20503;-91
2022/06/05 01:22:45;;;;;;;9.47;8.67;;;16.50;99.90;;;;;;5016602;28;20468;-91
2022/06/05 01:25:32;;;;;;;9.80;8.90;;;16.40;99.90;;;;;;5014613;28;20444;-91
2022/06/05 01:28:04;;;;;;;9.33;8.60;;;16.40;99.90;;;;;;5014620;28;20447;-92
2022/06/05 01:30:36;;;;;;;10.20;9.40;;;16.40;99.90;;;;;;5011883;28;20448;-91
2022/06/05 01:33:07;;;;;;;9.73;8.83;;;16.40;99.90;;;;;;5014533;28;20491;-90
2022/06/05 01:35:41;;;;;;;10.80;9.90;;;16.40;99.90;;;;;;5013441;28;20456;-91
2022/06/05 01:38:15;;;;;;;10.87;9.97;;;16.50;99.90;;;;;;5014407;28;20440;-90
2022/06/05 01:40:48;;;;;;;9.87;8.87;;;16.50;99.90;;;;;;5013779;28;20455;-91
2022/06/05 01:43:20;;;;;;;10.60;9.70;;;16.60;99.90;;;;;;5014469;28;20491;-92
2022/06/05 01:45:49;;;;;;;11.30;10.40;;;16.60;99.90;;;;;;5014036;28;20556;-91
2022/06/05 01:48:21;;;;;;;11.80;10.80;;;16.60;99.90;;;;;;5013951;28;20448;-90
2022/06/05 01:50:52;;;;;;;10.33;9.43;;;16.60;99.90;;;;;;5013010;28;20452;-90
2022/06/05 01:53:23;;;;;;;10.70;9.60;;;16.60;99.90;;;;;;5014354;28;20803;-91
2022/06/05 01:55:54;;;;;;;11.17;10.17;;;16.60;99.90;;;;;;5014218;28;20448;-93
2022/06/05 01:58:26;;;;;;;10.80;9.90;;;16.60;99.90;;;;;;5014239;28;20448;-91
2022/06/05 02:00:57;;;;;;;12.43;10.10;;;16.60;99.90;;;;;;5013814;28;20477;-92
2022/06/05 02:03:31;;;;;;;11.10;10.10;;;16.50;99.90;;;;;;5008854;28;20538;-90
2022/06/05 02:06:01;;;;;;;11.67;10.67;;;16.50;99.90;;;;;;5012683;28;20524;-90
2022/06/05 02:08:33;;;;;;;10.80;9.80;;;16.60;99.90;;;;;;5013755;28;20449;-91
2022/06/05 02:11:05;;;;;;;13.57;11.10;;;16.60;99.90;;;;;;5013887;28;20456;-91
2022/06/05 02:13:32;;;;;;;11.40;10.30;;;;;;;;;;5013935;28;20456;-91
2022/06/05 02:15:59;;;;;;;11.93;10.83;;;;;;;;;;5013943;28;20445;-92
2022/06/05 02:18:26;;;;;;;12.17;10.97;;;;;;;;;;5013502;28;20479;-91
2022/06/05 02:20:55;;;;;;;11.27;10.07;;;16.50;99.90;;;;;;5012535;28;20460;-90
2022/06/05 02:23:25;;;;;;;11.70;10.80;;;16.50;99.90;;;;;;5014546;28;20444;-92
2022/06/05 02:25:52;;;;;;;10.30;9.50;;;;;;;;;;5013433;28;20441;-91
2022/06/05 02:28:21;;;;;;;11.50;10.50;;;;;;;;;;5013715;28;20789;-91
2022/06/05 02:31:00;;;;;;;11.77;10.67;;;16.60;99.90;;;;;;5013649;28;20448;-89
2022/06/05 02:33:40;;;;;;;11.97;10.80;;;16.60;99.90;;;;;;5013556;28;20462;-90
2022/06/05 02:36:17;;;;;;;11.97;10.70;;;16.80;99.90;;;;;;5012287;28;20456;-90
2022/06/05 02:38:58;;;;;;;12.17;11.13;;;16.80;99.90;;;;;;5013486;28;20457;-90
2022/06/05 02:41:32;;;;;;;11.33;10.43;;;16.80;99.90;;;;;;5013062;28;20834;-90
2022/06/05 02:46:56;;;;;;;12.00;10.90;;;16.80;99.90;;;;;;5013347;28;20464;-89
2022/06/05 02:49:31;;;;;;;11.23;10.33;;;16.80;99.90;;;;;;5011046;28;20456;-90
2022/06/05 02:52:02;;;;;;;11.00;9.87;;;16.90;99.90;;;;;;5013868;28;20447;-91
2022/06/05 02:54:29;;;;;;;10.27;9.37;;;;;;;;;;5014574;28;20463;-89
2022/06/05 02:56:56;;;;;;;11.70;10.70;;;;;;;;;;5011313;28;20449;-90
2022/06/05 02:59:26;;;;;;;11.30;10.40;;;16.90;99.90;;;;;;5013339;28;20819;-92
2022/06/05 03:04:37;;;;;;;11.57;10.57;;;;;;;;;;5012800;28;20522;-92
2022/06/05 03:07:04;;;;;;;12.37;11.37;;;;;;;;;;5014002;28;20452;-91
2022/06/05 03:09:33;;;;;;;11.83;10.53;;;;;;;;;;5014105;28;20455;-90
2022/06/05 03:12:01;;;;;;;12.57;11.47;;;;;;;;;;5013018;28;20951;-90
2022/06/05 03:14:29;;;;;;;11.50;10.60;;;16.80;99.90;;;;;;5013839;28;20527;-92
2022/06/05 03:16:56;;;;;;;10.43;9.53;;;;;;;;;;5013471;28;20455;-92
2022/06/05 03:19:23;;;;;;;16.53;10.80;;;;;;;;;;5012141;28;20459;-89
2022/06/05 03:21:50;;;;;;;14.10;11.50;;;;;;;;;;5011976;28;20459;-91
2022/06/05 03:24:18;;;;;;;12.63;11.50;;;;;;;;;;5013238;28;20520;-91
2022/06/05 03:26:45;;;;;;;14.90;11.30;;;;;;;;;;5013619;28;20668;-90
2022/06/05 03:29:12;;;;;;;11.60;10.60;;;;;;;;;;5013278;28;20962;-91
2022/06/05 03:31:40;;;;;;;11.77;10.77;;;17.00;99.90;;;;;;5014784;28;20448;-90
2022/06/05 03:34:08;;;;;;;11.90;10.70;;;;;;;;;;5015653;28;20527;-91
2022/06/05 03:36:35;;;;;;;12.20;11.10;;;;;;;;;;5016566;28;20531;-91
2022/06/05 03:39:02;;;;;;;14.03;11.67;;;;;;;;;;5016464;28;20444;-90
2022/06/05 03:41:29;;;;;;;13.53;11.10;;;;;;;;;;5016688;28;20475;-90
2022/06/05 03:43:56;;;;;;;10.43;9.43;;;;;;;;;;5016011;28;20488;-89
2022/06/05 03:46:23;;;;;;;11.00;10.10;;;;;;;;;;5017224;28;20451;-89
2022/06/05 03:48:52;;;;;;;12.33;11.17;;;15.80;99.90;;;;;;5016439;28;20452;-88
2022/06/05 03:51:20;;;;;;;11.23;10.03;;;17.20;99.90;;;;;;5016603;28;20467;-88
2022/06/05 03:53:48;;;;;;;11.30;10.20;;;;;;;;;;5015999;28;20448;-91
2022/06/05 03:56:17;;;;;;;9.70;8.90;;;17.30;99.90;;;;;;5016667;28;20441;-90
2022/06/05 03:58:45;;;;;;;11.20;10.30;;;;;;;;;;5016311;28;20452;-92
2022/06/05 04:01:13;;;;;;;11.23;10.23;;;17.20;99.90;;;;;;5013417;28;20440;-91
2022/06/05 04:03:41;;;;;;;10.63;9.73;;;;;;;;;;5015997;28;20433;-91
2022/06/05 04:06:10;;;;;;;10.67;9.87;;;17.10;99.90;;;;;;5014902;28;20464;-91
2022/06/05 04:08:38;;;;;;;11.47;10.47;;;17.10;99.90;;;;;;5015913;28;20459;-89
2022/06/05 04:11:06;;;;;;;11.83;10.30;;;;;;;;;;5016012;28;20453;-91
2022/06/05 04:13:33;;;;;;;15.73;11.60;;;;;;;;;;5015841;28;20456;-91
2022/06/05 04:16:01;;;;;;;11.30;10.40;;;;;;;;;;5015490;28;20464;-89
2022/06/05 04:18:28;;;;;;;11.27;10.37;;;;;;;;;;5015547;28;20444;-89
2022/06/05 04:20:55;;;;;;;12.40;11.20;;;;;;;;;;5014111;28;20460;-89
2022/06/05 04:23:23;;;;;;;11.57;10.67;;;17.10;99.90;;;;;;5015583;28;20440;-90
2022/06/05 04:25:50;;;;;;;12.13;10.90;;;;;;;;;;5015377;28;20492;-89
2022/06/05 04:28:17;;;;;;;12.83;11.80;;;;;;;;;;5015321;28;20977;-88
2022/06/05 04:30:44;;;;;;;12.37;11.30;;;;;;;;;;5015242;28;20452;-88
2022/06/05 04:33:12;;;;;;;11.93;10.73;;;;;;;;;;5015113;28;20467;-90
2022/06/05 04:35:39;;;;;;;11.93;10.83;;;;;;;;;;5013970;28;20822;-90
2022/06/05 04:38:06;;;;;;;12.70;11.60;;;;;;;;;;5015042;28;20452;-88
2022/06/05 04:40:34;;;;;;;12.03;11.03;;;16.80;99.90;;;;;;5015044;28;20464;-89
2022/06/05 04:43:01;;;;;;;15.73;11.20;;;;;;;;;;5014693;28;20448;-90
2022/06/05 04:45:28;;;;;;;13.40;11.43;;;;;;;;;;5014785;28;20504;-90
2022/06/05 04:47:55;;;;;;;11.40;10.33;;;;;;;;;;5014779;28;20453;-89
2022/06/05 04:50:22;;;;;;;12.90;11.70;;;;;;;;;;5013795;28;20471;-91
2022/06/05 04:52:49;;;;;;;12.27;11.27;;;;;;;;;;5014749;28;20467;-89
2022/06/05 04:55:17;;;;;;;11.87;10.70;;;;;;;;;;5015238;28;20487;-91
2022/06/05 04:57:45;;;;;;;12.10;11.00;;;16.80;99.90;;;;;;5015157;28;20449;-89
2022/06/05 05:00:13;;;;;;;12.57;11.47;;;16.80;99.90;;;;;;5013480;28;20460;-88
2022/06/05 05:02:40;;;;;;;13.27;12.10;;;;;;;;;;5014150;28;20877;-88
2022/06/05 05:05:08;;;;;;;15.20;13.80;;;16.60;99.90;;;;;;5013354;28;20495;-89
2022/06/05 05:07:35;;;;;;;13.90;12.37;;;;;;;;;;5013207;28;20459;-90
2022/06/05 05:10:02;;;;;;;13.70;12.33;;;;;;;;;;5015221;28;20452;-93
2022/06/05 05:12:31;;;;;;;16.73;13.10;;;;;;;;;;5016365;28;20463;-94
2022/06/05 05:15:00;;;;;;;15.83;14.23;;;;;;;;;;5016137;28;20460;-92
2022/06/05 05:17:27;;;;;;;16.57;14.03;;;;;;;;;;5015236;28;20476;-91
2022/06/05 05:19:55;;;;;;;16.30;14.60;;;;;;;;;;5014652;28;20464;-91
2022/06/05 05:22:22;;;;;;;16.97;14.00;;;;;;;;;;5015620;28;20947;-92
2022/06/05 05:24:49;;;;;;;15.27;13.80;;;;;;;;;;5015891;28;20502;-92
2022/06/05 05:27:17;;;;;;;18.00;16.07;;;;;;;;;;5015702;28;20448;-94
2022/06/05 05:29:44;;;;;;;17.57;15.90;;;;;;;;;;5014500;28;20620;-91
2022/06/05 05:32:12;;;;;;;17.90;16.10;;;16.60;99.90;;;;;;5013587;28;20433;-91
2022/06/05 05:34:40;;;;;;;19.10;16.27;;;;;;;;;;5013746;28;20468;-93
2022/06/05 05:37:07;;;;;;;18.03;16.13;;;;;;;;;;5015175;28;20963;-95
2022/06/05 05:42:18;;;;;;;18.70;15.50;;;;;;;;;;5034640;28;20436;-90
2022/06/05 05:44:51;;;;;;;16.03;14.50;;;16.50;99.90;;;;;;5037979;28;20639;-89
2022/06/05 05:47:21;;;;;;;15.93;14.53;;;16.80;99.90;;;;;;5016451;28;20483;-91
2022/06/05 05:49:52;;;;;;;14.67;13.17;;;16.40;99.90;;;;;;5018486;28;20448;-91
2022/06/05 05:52:19;;;;;;;14.10;12.67;;;;;;;;;;5014643;28;20797;-91
2022/06/05 05:54:46;;;;;;;15.67;14.23;;;;;;;;;;5013644;28;20452;-90
2022/06/05 05:57:13;;;;;;;14.93;13.53;;;;;;;;;;5014157;28;20456;-90
2022/06/05 05:59:43;;;;;;;15.50;14.10;;;;;;;;;;5032371;28;20452;-91
2022/06/05 06:02:13;;;;;;;14.63;13.33;;;;;;;;;;5026310;28;20919;-90
2022/06/05 06:04:42;;;;;;;14.13;12.60;;;16.40;99.90;;;;;;5019840;28;20488;-91
2022/06/05 06:07:10;;;;;;;12.80;10.67;;;16.30;99.90;;;;;;4996388;28;20452;-93
2022/06/05 06:09:37;;;;;;;17.60;14.60;;;;;;;;;;5017986;28;20441;-92
2022/06/05 06:12:06;;;;;;;15.67;14.17;;;;;;;;;;5018018;28;20457;-94
2022/06/05 06:14:34;;;;;;;13.23;11.93;;;;;;;;;;5018750;28;20811;-91
2022/06/05 06:17:02;;;;;;;12.10;10.80;;;;;;;;;;5019081;28;20541;-89
2022/06/05 06:19:29;;;;;;;13.00;11.00;;;;;;;;;;5018512;28;20548;-96
2022/06/05 06:21:58;;;;;;;14.30;12.70;;;16.10;99.90;;;;;;5018592;28;20455;-90
2022/06/05 06:24:25;;;;;;;13.83;12.53;;;;;;;;;;5017381;28;20444;-92
2022/06/05 06:26:52;;;;;;;13.13;11.73;;;;;;;;;;5016841;28;20456;-93
2022/06/05 06:29:20;;;;;;;10.97;9.83;;;;;;;;;;5016335;28;20456;-90
2022/06/05 06:31:47;;;;;;;11.03;10.00;;;;;;;;;;5016793;28;20455;-92
2022/06/05 06:34:14;;;;;;;7.67;7.07;;;;;;;;;;5013692;28;20943;-92
2022/06/05 06:36:43;;;;;;;8.37;7.60;;;;;;;;;;5015960;28;20467;-93
2022/06/05 06:39:12;;;;;;;8.20;7.50;;;16.10;99.90;;;;;;5015591;28;20461;-93
2022/06/05 06:41:39;;;;;;;16.27;7.97;;;;;;;;;;5013872;28;20982;-91
2022/06/05 06:44:06;;;;;;;10.43;7.10;;;;;;;;;;5013610;28;20444;-93
2022/06/05 06:46:36;;;;;;;6.90;6.20;;;;;;;;;;5018362;28;20472;-93
2022/06/05 06:49:03;;;;;;;5.90;5.40;;;;;;;;;;5012473;28;20453;-91
2022/06/05 06:51:30;;;;;;;5.50;4.33;;;;;;;;;;5016683;28;20448;-93
2022/06/05 06:53:57;;;;;;;5.60;5.10;;;;;;;;;;5013550;28;20468;-92
2022/06/05 06:56:28;;;;;;;8.43;5.70;;;16.00;99.90;;;;;;5016888;28;20456;-91
2022/06/05 06:58:55;;;;;;;12.57;5.27;;;;;;;;;;5013628;28;20456;-92
2022/06/05 07:01:22;;;;;;;7.77;5.80;;;;;;;;;;5021991;28;20460;-95
2022/06/05 07:03:56;;;;;;;5.27;4.63;;;16.00;99.90;;;;;;5021110;28;20519;-95
2022/06/05 07:06:23;;;;;;;6.63;5.10;;;16.80;99.90;;;;;;5016204;28;20975;-89
2022/06/05 07:08:51;;;;;;;7.80;5.93;;;16.10;99.90;;;;;;5018231;28;20448;-90
2022/06/05 07:11:19;;;;;;;6.90;6.30;;;16.10;99.90;;;;;;5017423;28;20867;-94
2022/06/05 07:16:28;;;;;;;7.30;6.60;;;;;;;;;;5019596;28;20547;-93
2022/06/05 07:18:56;;;;;;;6.30;5.30;;;;;;;;;;5021828;28;20464;-94
2022/06/05 07:21:26;;;;;;;6.80;6.20;;;16.00;99.90;;;;;;5021069;28;20471;-94
2022/06/05 07:23:53;;;;;;;7.67;6.67;;;;;;;;;;5019246;28;20460;-95
2022/06/05 07:26:22;;;;;;;6.63;5.97;;;16.10;99.90;;;;;;5021648;28;20493;-93
2022/06/05 07:28:56;;;;;;;7.43;5.70;;;16.00;99.90;;;;;;5021183;28;20533;-95
2022/06/05 07:31:26;;;;;;;6.80;6.17;;;;;;;;;;5024752;28;20445;-95
2022/06/05 07:33:53;;;;;;;7.30;6.60;;;;;;;;;;5019275;28;20952;-91
2022/06/05 07:36:21;;;;;;;8.27;5.10;;;;;;;;;;5020958;28;20460;-93
2022/06/05 07:38:49;;;;;;;5.80;5.20;;;;;;;;;;5020479;28;20480;-92
2022/06/05 07:41:19;;;;;;;6.20;5.50;;;16.20;99.90;;;;;;5018177;28;20452;-94
2022/06/05 07:43:46;;;;;;;7.50;5.50;;;;;;;;;;5017494;28;20444;-93
2022/06/05 07:46:16;;;;;;;6.30;4.37;;;;;;;;;;5020157;28;20492;-94
2022/06/05 07:48:43;;;;;;;5.47;4.40;;;;;;;;;;5016268;28;20484;-94
2022/06/05 07:56:42;;;;;;;4.90;4.20;;;;;;;;;;5019729;28;20519;-93
2022/06/05 07:59:09;;;;;;;8.27;4.30;;;;;;;;;;5019740;28;20520;-94
2022/06/05 08:01:38;;;;;;;6.10;4.37;;;;;;;;;;5015153;28;20465;-91
2022/06/05 08:04:05;;;;;;;4.30;3.90;;;;;;;;;;5011521;28;20449;-91
2022/06/05 08:06:34;;;;;;;4.30;3.87;;;16.60;99.90;;;;;;5012392;28;21037;-92
2022/06/05 08:09:08;;;;;;;4.53;4.10;;;;;;;;;;5018187;28;20484;-93
2022/06/05 08:11:36;;;;;;;5.90;3.67;;;16.90;99.90;;;;;;5012752;28;20461;-92
2022/06/05 08:14:04;;;;;;;5.00;3.73;;;17.00;99.90;;;;;;5016165;28;20444;-91
2022/06/05 08:16:32;;;;;;;3.80;3.40;;;17.20;99.90;;;;;;5016374;28;21029;-92
2022/06/05 08:19:00;;;;;;;4.80;4.30;;;17.30;99.90;;;;;;5012796;28;20484;-92
2022/06/05 08:21:27;;;;;;;4.80;3.03;;;;;;;;;;5016277;28;20445;-88
2022/06/05 08:23:54;;;;;;;3.90;3.60;;;;;;;;;;5024386;28;20456;-93
2022/06/05 08:26:21;;;;;;;4.07;3.73;;;;;;;;;;5019056;28;20558;-92
2022/06/05 08:28:48;;;;;;;3.70;3.40;;;;;;;;;;5018099;28;20836;-91
2022/06/05 08:31:15;;;;;;;4.40;3.50;;;;;;;;;;5016255;28;20441;-89
2022/06/05 08:33:44;;;;;;;4.63;3.33;;;;;;;;;;5015864;28;20452;-93
2022/06/05 08:36:13;;;;;;;5.00;3.30;;;18.70;99.90;;;;;;5009384;28;20452;-94
2022/06/05 08:41:39;;;;;;;2.90;2.70;;;19.20;99.90;;;;;;5016100;28;20544;-89
2022/06/05 08:44:15;;;;;;;4.37;2.60;;;19.40;99.90;;;;;;5017700;28;20460;-90
2022/06/05 08:46:45;;;;;;;5.40;2.60;;;19.90;99.90;;;;;;5016120;28;20498;-90
2022/06/05 08:49:14;;;;;;;2.73;2.20;;;20.20;99.90;;;;;;5016956;28;21045;-91
2022/06/05 08:51:50;;;;;;;3.00;2.53;;;20.90;99.90;;;;;;5017261;28;20452;-88
2022/06/05 08:54:26;;;;;;;1.70;1.60;;;21.10;99.90;;;;;;5020380;28;20452;-90
2022/06/05 08:57:03;;;;;;;4.40;1.67;;;21.30;99.90;;;;;;5021819;28;20959;-95
2022/06/05 08:59:47;;;;;;;3.67;1.77;;;21.30;99.90;;;;;;5017683;28;20449;-92
2022/06/05 09:02:21;;;;;;;2.50;1.63;;;21.20;99.90;;;;;;5019360;28;20448;-93
2022/06/05 09:04:53;;;;;;;3.57;3.27;;;21.30;99.90;;;;;;5086501;22;20486;-91
2022/06/05 09:07:34;;;;;;;3.10;2.20;;;21.70;99.90;;;;;;5058525;28;20494;-89
2022/06/05 09:10:04;;;;;;;2.57;2.20;;;22.10;99.90;;;;;;5051557;28;20450;-90
2022/06/05 09:12:37;;;;;;;3.20;2.50;;;21.70;99.90;;;;;;5058248;28;20454;-94
2022/06/05 09:15:13;;;;;;;4.93;2.07;;;21.30;99.90;;;;;;5052048;28;20465;-90
2022/06/05 09:17:46;;;;;;;2.43;2.10;;;21.10;99.90;;;;;;5058618;28;20446;-91
2022/06/05 09:20:15;;;;;;;2.37;1.80;;;20.80;99.90;;;;;;5056987;28;20459;-94
2022/06/05 09:22:50;;;;;;;2.60;2.23;;;20.60;99.90;;;;;;5056936;28;20455;-93
2022/06/05 09:25:40;;;;;;;2.43;1.60;;;20.40;99.90;;;;;;5055796;28;20830;-89
2022/06/05 09:28:26;;;;;;;3.10;1.90;;;20.50;99.90;;;;;;5056130;28;20455;-91
2022/06/05 09:30:58;;;;;;;2.57;1.70;;;21.00;99.90;;;;;;5057379;28;20478;-93
2022/06/05 09:33:30;;;;;;;3.63;2.23;;;21.50;99.90;;;;;;5059255;28;20469;-90
2022/06/05 09:36:01;;;;;;;3.23;1.83;;;21.30;99.90;;;;;;5058745;28;20554;-91
2022/06/05 09:38:36;;;;;;;3.00;2.00;;;21.10;99.90;;;;;;5058732;28;20973;-91
2022/06/05 09:41:26;;;;;;;2.00;1.83;;;21.10;99.90;;;;;;5050684;28;21080;-92
2022/06/05 09:44:08;;;;;;;2.17;1.40;;;21.60;99.90;;;;;;5056236;28;20439;-91
2022/06/05 09:46:55;;;;;;;2.60;1.67;;;21.60;99.90;;;;;;5051825;28;21088;-95
2022/06/05 09:49:26;;;;;;;1.93;1.70;;;22.30;99.90;;;;;;5055295;28;20443;-93
2022/06/05 09:51:54;;;;;;;1.57;1.43;;;23.20;99.90;;;;;;5055302;28;20450;-90
2022/06/05 09:54:27;;;;;;;2.23;1.33;;;23.00;99.90;;;;;;5048452;28;20439;-92
2022/06/05 10:00:03;;;;;;;1.50;1.20;;;23.50;99.90;;;;;;5055664;28;20450;-91
2022/06/05 10:02:33;;;;;;;1.80;1.50;;;23.80;99.90;;;;;;5057095;28;20454;-91
2022/06/05 10:05:00;;;;;;;1.60;1.30;;;;;;;;;;5050493;28;20486;-91
2022/06/05 10:07:33;;;;;;;1.13;1.00;;;22.30;99.90;;;;;;5054677;28;20490;-91
2022/06/05 10:10:04;;;;;;;3.13;1.73;;;22.00;99.90;;;;;;5047852;28;20488;-94
2022/06/05 10:12:38;;;;;;;2.13;1.20;;;21.90;99.90;;;;;;5056812;28;20435;-89
2022/06/05 10:15:19;;;;;;;3.43;1.80;;;21.80;99.90;;;;;;5055412;28;20484;-89
2022/06/05 10:17:50;;;;;;;2.07;1.80;;;21.90;99.90;;;;;;5056417;28;20450;-91
2022/06/05 10:20:47;;;;;;;3.10;1.87;;;21.80;99.90;;;;;;5051538;28;20454;-91
2022/06/05 10:23:20;;;;;;;5.20;2.40;;;;;;;;;;5047438;28;20470;-95
2022/06/05 10:25:54;;;;;;;2.23;1.70;;;20.90;99.90;;;;;;5057913;28;20447;-91
2022/06/05 10:28:23;;;;;;;4.10;1.90;;;20.80;99.90;;;;;;5056518;28;20438;-91
2022/06/05 10:30:57;;;;;;;2.23;2.03;;;20.80;99.90;;;;;;5056345;28;20953;-92
2022/06/05 10:33:38;;;;;;;2.40;2.00;;;20.70;99.90;;;;;;5060206;28;20450;-91
2022/06/05 10:36:14;;;;;;;5.20;2.57;;;20.60;99.90;;;;;;5058423;28;20470;-93
2022/06/05 10:38:45;;;;;;;6.83;3.17;;;20.60;99.90;;;;;;5055402;28;20961;-95
2022/06/05 10:41:22;;;;;;;6.20;3.17;;;20.30;99.90;;;;;;5077626;22;20555;-95
2022/06/05 10:44:06;;;;;;;5.67;3.23;;;20.30;99.90;;;;;;5077807;28;20453;-92
2022/06/05 10:46:35;;;;;;;6.07;3.30;;;20.10;99.90;;;;;;5081346;28;20484;-93
2022/06/05 10:49:10;;;;;;;4.37;3.80;;;19.80;99.90;;;;;;5079144;28;20464;-91
2022/06/05 10:51:44;;;;;;;4.07;3.67;;;19.70;99.90;;;;;;5075891;28;20460;-94
2022/06/05 10:54:32;;;;;;;6.40;4.30;;;19.50;99.90;;;;;;5080354;28;20454;-89
2022/06/05 10:57:07;;;;;;;6.50;4.50;;;19.40;99.90;;;;;;5070248;28;20445;-92
2022/06/05 10:59:49;;;;;;;6.30;4.50;;;19.20;99.90;;;;;;5078845;28;20453;-92
2022/06/05 11:02:36;;;;;;;6.07;4.50;;;19.20;99.90;;;;;;5080880;28;20878;-93
2022/06/05 11:05:28;;;;;;;4.80;4.40;;;19.10;99.90;;;;;;5079557;28;20457;-91
2022/06/05 11:08:04;;;;;;;7.60;5.10;;;19.10;99.90;;;;;;5070853;28;20481;-90
2022/06/05 11:13:44;;;;;;;9.27;5.40;;;19.10;99.90;;;;;;5062635;28;20865;-92
2022/06/05 11:16:29;;;;;;;8.50;4.60;;;19.00;99.90;;;;;;5081539;22;20486;-88
2022/06/05 11:19:09;;;;;;;4.93;4.30;;;18.90;99.90;;;;;;5076864;22;20481;-92
2022/06/05 11:21:37;;;;;;;5.30;4.80;;;18.80;99.90;;;;;;5073624;28;20500;-89
2022/06/05 11:24:13;;;;;;;5.67;3.13;;;;;;;;;;5087831;22;20546;-91
2022/06/05 11:26:48;;;;;;;6.43;4.40;;;18.70;99.90;;;;;;5092524;28;20588;-89
2022/06/05 11:29:25;;;;;;;5.43;4.20;;;18.60;99.90;;;;;;5091842;28;20445;-90
2022/06/05 11:32:17;;;;;;;5.63;4.30;;;18.70;99.90;;;;;;5089018;22;20505;-91
2022/06/05 11:34:52;;;;;;;5.43;4.50;;;19.10;99.90;;;;;;5064598;28;20450;-90
2022/06/05 11:37:36;;;;;;;5.90;4.67;;;19.30;99.90;;;;;;5075119;22;20477;-89
2022/06/05 11:40:12;;;;;;;6.97;4.43;;;19.60;99.90;;;;;;5068184;28;20447;-88
2022/06/05 11:42:47;;;;;;;5.03;3.70;;;19.50;99.90;;;;;;5065737;28;20446;-94
2022/06/05 11:45:31;;;;;;;3.73;3.10;;;19.80;99.90;;;;;;5066676;28;20453;-91
2022/06/05 11:48:04;;;;;;;4.90;4.33;;;20.30;99.90;;;;;;5068475;28;20481;-92
2022/06/05 11:50:36;;;;;;;4.53;3.40;;;21.20;99.90;;;;;;5064405;28;20500;-88
2022/06/05 11:53:14;;;;;;;4.17;3.43;;;21.70;99.90;;;;;;5070426;28;20968;-93
2022/06/05 11:55:50;;;;;;;3.00;2.70;;;21.70;99.90;;;;;;5063816;28;20936;-92
2022/06/05 11:58:23;;;;;;;5.30;2.70;;;21.80;99.90;;;;;;5076877;22;20490;-92
2022/06/05 12:00:56;;;;;;;4.50;2.90;;;21.40;99.90;;;;;;5057412;28;20451;-93
2022/06/05 12:03:39;;;;;;;2.80;2.07;;;21.70;99.90;;;;;;5059001;28;20454;-93
2022/06/05 12:06:13;;;;;;;4.53;3.40;;;;;;;;;;5060802;28;20457;-92
2022/06/05 12:08:43;;;;;;;5.27;3.43;;;21.60;99.90;;;;;;5061869;28;20473;-90
2022/06/05 12:11:14;;;;;;;2.43;2.00;;;21.50;99.90;;;;;;5058858;28;20442;-89
2022/06/05 12:14:02;;;;;;;2.77;2.20;;;21.30;99.90;;;;;;5056981;28;20439;-91
2022/06/05 12:16:36;;;;;;;3.00;2.30;;;21.40;99.90;;;;;;5056533;28;20446;-92
2022/06/05 12:19:14;;;;;;;4.93;2.47;;;21.40;99.90;;;;;;5058681;28;20450;-91
2022/06/05 12:21:52;;;;;;;3.00;2.23;;;21.10;99.90;;;;;;5057497;28;20449;-91
2022/06/05 12:24:24;;;;;;;9.37;2.60;;;21.20;99.90;;;;;;5054485;28;20462;-90
2022/06/05 12:26:55;;;;;;;4.00;2.40;;;21.00;99.90;;;;;;5055762;28;20489;-91
2022/06/05 12:29:30;;;;;;;1.70;1.50;;;20.90;99.90;;;;;;5056539;28;20451;-94
2022/06/05 12:32:03;;;;;;;5.13;2.57;;;21.30;99.90;;;;;;5057096;28;20450;-91
2022/06/05 12:34:40;;;;;;;3.73;2.03;;;21.00;99.90;;;;;;5055640;28;20454;-92
2022/06/05 12:37:17;;;;;;;5.20;2.23;;;21.70;99.90;;;;;;5056428;28;20463;-93
2022/06/05 12:39:47;;;;;;;2.20;2.00;;;22.60;99.90;;;;;;5056992;28;20454;-93
2022/06/05 12:42:37;;;;;;;5.60;2.70;;;22.90;99.90;;;;;;5060455;28;20459;-92
2022/06/05 12:45:19;;;;;;;4.83;2.40;;;23.10;99.90;;;;;;5057219;28;20545;-92
2022/06/05 12:48:26;;;;;;;3.33;2.40;;;22.90;99.90;;;;;;5059017;28;20579;-91
2022/06/05 12:51:00;;;;;;;7.67;2.77;;;22.20;99.90;;;;;;5054731;28;20481;-91
2022/06/05 12:53:34;;;;;;;6.40;2.90;;;22.00;99.90;;;;;;5058470;28;20501;-91
2022/06/05 12:56:14;;;;;;;4.00;2.50;;;22.00;99.90;;;;;;5059746;28;20873;-93
2022/06/05 12:58:50;;;;;;;2.70;2.27;;;22.40;99.90;;;;;;5057867;28;20509;-93
2022/06/05 13:01:21;;;;;;;4.30;1.67;;;22.50;99.90;;;;;;5057388;28;20450;-92
2022/06/05 13:04:13;;;;;;;4.97;2.20;;;22.40;99.90;;;;;;5056549;28;20815;-92
2022/06/05 13:06:59;;;;;;;2.67;2.10;;;22.80;99.90;;;;;;5063275;28;21062;-89
2022/06/05 13:09:31;;;;;;;5.50;2.07;;;22.90;99.90;;;;;;5058885;28;20453;-92
2022/06/05 13:12:05;;;;;;;5.50;3.00;;;23.00;99.90;;;;;;5055449;28;20459;-91
2022/06/05 13:14:49;;;;;;;3.10;2.60;;;22.50;99.90;;;;;;5058762;28;20447;-89
2022/06/05 13:17:25;;;;;;;5.33;2.07;;;22.60;99.90;;;;;;5058081;28;20800;-90
2022/06/05 13:19:57;;;;;;;4.27;2.13;;;;;;;;;;5061345;28;20881;-94
2022/06/05 13:22:32;;;;;;;5.70;2.90;;;23.10;99.90;;;;;;5060167;28;20964;-94
2022/06/05 13:25:07;;;;;;;4.23;2.00;;;23.40;99.90;;;;;;5056832;28;20454;-91
2022/06/05 13:27:52;;;;;;;4.87;2.23;;;22.90;99.90;;;;;;5057453;28;20494;-88
2022/06/05 13:30:21;;;;;;;6.87;2.40;;;23.10;99.90;;;;;;5059621;28;20454;-91
2022/06/05 13:32:55;;;;;;;3.33;2.43;;;23.30;99.90;;;;;;5061073;28;20457;-93
2022/06/05 13:35:38;;;;;;;6.60;2.40;;;23.30;99.90;;;;;;5058556;28;20450;-94
2022/06/05 13:38:08;;;;;;;6.77;2.70;;;;;;;;;;5062088;28;20481;-93
2022/06/05 13:40:43;;;;;;;4.20;2.00;;;23.30;99.90;;;;;;5061224;28;20455;-87
2022/06/05 13:43:21;;;;;;;5.17;2.63;;;23.10;99.90;;;;;;5060584;28;20446;-94
2022/06/05 13:46:21;;;;;;;5.10;2.60;;;23.00;99.90;;;;;;5062136;28;20768;-91
2022/06/05 13:48:55;;;;;;;4.53;2.50;;;22.70;99.90;;;;;;5063992;28;20486;-89
2022/06/05 13:51:27;;;;;;;4.83;2.70;;;22.30;99.90;;;;;;5079080;28;20437;-90
2022/06/05 13:54:11;;;;;;;7.27;2.73;;;22.20;99.90;;;;;;5062234;28;20449;-92
2022/06/05 13:56:44;;;;;;;5.47;2.23;;;22.00;99.90;;;;;;5056126;28;20450;-90
2022/06/05 14:02:06;;;;;;;3.00;2.47;;;22.30;99.90;;;;;;5075311;22;20562;-89
2022/06/05 14:04:35;;;;;;;3.50;2.63;;;21.80;99.90;;;;;;5061475;28;20453;-90
2022/06/05 14:07:12;;;;;;;3.20;2.70;;;21.70;99.90;;;;;;5051097;28;20474;-90
2022/06/05 14:09:42;;;;;;;2.80;2.50;;;21.70;99.90;;;;;;5057210;28;20447;-89
2022/06/05 14:12:20;;;;;;;4.60;3.13;;;21.70;99.90;;;;;;5057566;28;20458;-90